Time;durP1;ratioP1;P1;durP2;ratioP2;P2;SDS_P1;SDS_P2;PMS_P1;PMS_P2;Temp;Humidity;BMP_temperature;BMP_pressure;BME280_temperature;BME280_humidity;BME280_pressure;Samples;Min_cycle;Max_cycle;Signal;HPM_P1;HPM_P2
2021/12/14 00:00:09;;;;;;;1.83;0.68;;;;;;;4.92;100.00;99146.66;4986386;28;19933;-70
2021/12/14 00:02:41;;;;;;;1.23;0.85;;;;;;;4.94;100.00;99161.25;4990710;28;20554;-69
2021/12/14 00:05:12;;;;;;;1.00;0.50;;;;;;;4.92;100.00;99172.28;4990697;28;20054;-69
2021/12/14 00:07:41;;;;;;;1.02;0.85;;;;;;;4.91;100.00;99161.19;4992048;28;20055;-70
2021/12/14 00:10:15;;;;;;;1.33;0.77;;;;;;;4.91;100.00;99173.13;4991766;28;20487;-70
2021/12/14 00:12:55;;;;;;;0.82;0.45;;;;;;;4.92;100.00;99170.59;4991583;28;20065;-70
2021/12/14 00:15:26;;;;;;;0.73;0.55;;;;;;;4.96;100.00;99184.38;4992180;28;20058;-70
2021/12/14 00:17:59;;;;;;;1.80;0.70;;;;;;;5.00;100.00;99186.19;4992091;28;20137;-70
2021/12/14 00:20:28;;;;;;;;;;;;;;;5.03;100.00;99197.38;4991709;28;20058;-70
2021/12/14 00:25:46;;;;;;;1.98;0.98;;;;;;;5.06;100.00;99204.28;4991360;28;20108;-69
2021/12/14 00:28:23;;;;;;;0.55;0.32;;;;;;;5.01;100.00;99210.97;4994095;28;20046;-69
2021/12/14 00:30:55;;;;;;;0.55;0.47;;;;;;;5.02;100.00;99211.03;4992877;28;20120;-71
2021/12/14 00:33:26;;;;;;;1.13;0.60;;;;;;;5.03;100.00;99211.91;4991744;28;20046;-71
2021/12/14 00:35:55;;;;;;;0.63;0.35;;;;;;;4.98;100.00;99198.09;4991531;28;20065;-70
2021/12/14 00:38:24;;;;;;;0.45;0.30;;;;;;;4.94;100.00;99196.25;4990847;28;20108;-69
2021/12/14 00:40:55;;;;;;;0.30;0.22;;;;;;;4.92;100.00;99197.91;4991257;28;20241;-70
2021/12/14 00:43:25;;;;;;;0.98;0.50;;;;;;;4.88;100.00;99214.94;4978941;28;20096;-69
2021/12/14 00:45:55;;;;;;;0.68;0.32;;;;;;;4.91;100.00;99232.06;4992042;28;20086;-69
2021/12/14 00:48:26;;;;;;;0.38;0.30;;;;;;;4.81;100.00;99230.94;4993194;28;20277;-69
2021/12/14 00:50:58;;;;;;;2.42;0.38;;;;;;;4.87;100.00;99250.75;4992391;28;20100;-69
2021/12/14 00:53:28;;;;;;;0.55;0.32;;;;;;;4.82;100.00;99254.03;4991614;28;20050;-70
2021/12/14 00:55:59;;;;;;;1.10;0.57;;;;;;;4.87;100.00;99248.19;4992756;28;20058;-70
2021/12/14 00:58:28;;;;;;;1.85;0.50;;;;;;;4.83;100.00;99260.03;4991775;28;20088;-70
2021/12/14 01:01:03;;;;;;;0.90;0.30;;;;;;;4.73;100.00;99256.34;4991534;28;20054;-70
2021/12/14 01:03:34;;;;;;;0.20;0.20;;;;;;;4.76;100.00;99274.38;4991940;28;20145;-70
2021/12/14 01:06:06;;;;;;;1.92;0.43;;;;;;;4.76;100.00;99284.59;4991761;28;20512;-69
2021/12/14 01:08:39;;;;;;;0.30;0.30;;;;;;;4.74;100.00;99283.72;4977798;28;20050;-70
2021/12/14 01:11:13;;;;;;;2.50;0.35;;;;;;;4.70;100.00;99288.72;4992715;28;20097;-69
2021/12/14 01:13:50;;;;;;;0.80;0.30;;;;;;;4.72;100.00;99275.13;4991853;28;20126;-70
2021/12/14 01:16:33;;;;;;;0.47;0.17;;;;;;;4.71;100.00;99282.75;4991213;28;20042;-69
2021/12/14 01:19:15;;;;;;;0.50;0.10;;;;;;;4.70;100.00;99281.03;4991304;28;20061;-70
2021/12/14 01:22:11;;;;;;;0.43;0.20;;;;;;;4.69;100.00;99281.84;4991432;28;20042;-69
2021/12/14 01:25:03;;;;;;;0.35;0.15;;;;;;;4.71;100.00;99287.88;4982761;28;20057;-69
2021/12/14 01:27:36;;;;;;;0.30;0.10;;;;;;;4.74;100.00;99291.41;4995132;28;20050;-69
2021/12/14 01:30:07;;;;;;;;;;;;;;;4.79;100.00;99289.84;4998677;28;20517;-70
2021/12/14 01:32:40;;;;;;;0.52;0.20;;;;;;;4.82;100.00;99295.03;4994511;28;19922;-69
2021/12/14 01:35:13;;;;;;;0.43;0.15;;;;;;;4.87;100.00;99297.75;4995302;28;20050;-70
2021/12/14 01:37:59;;;;;;;0.20;0.10;;;;;;;4.90;100.00;99297.84;4994837;28;20105;-69
2021/12/14 01:40:53;;;;;;;0.00;0.00;;;;;;;4.95;100.00;99324.47;4995449;28;20105;-69
2021/12/14 01:43:25;;;;;;;0.60;0.28;;;;;;;4.96;100.00;99315.94;4994488;28;20039;-70
2021/12/14 01:45:54;;;;;;;0.05;0.05;;;;;;;4.97;100.00;99307.44;4994698;28;20121;-70
2021/12/14 01:48:25;;;;;;;0.00;0.00;;;;;;;4.96;100.00;99313.38;4994843;28;20547;-70
2021/12/14 01:50:57;;;;;;;0.10;0.10;;;;;;;5.00;100.00;99327.16;4995220;28;20057;-70
2021/12/14 01:53:26;;;;;;;0.47;0.47;;;;;;;4.99;100.00;99333.09;4994603;28;20057;-70
2021/12/14 01:55:58;;;;;;;0.25;0.15;;;;;;;4.97;100.00;99334.75;4993321;28;20104;-70
2021/12/14 01:58:35;;;;;;;1.75;0.20;;;;;;;4.96;100.00;99340.72;4978120;28;20491;-70
2021/12/14 02:01:10;;;;;;;0.20;0.15;;;;;;;4.92;100.00;99338.88;4984130;28;20054;-71
2021/12/14 02:03:48;;;;;;;0.10;0.03;;;;;;;4.91;100.00;99349.97;4984961;28;20053;-71
2021/12/14 02:06:20;;;;;;;0.10;0.10;;;;;;;4.86;100.00;99356.66;4975516;28;20579;-70
2021/12/14 02:08:58;;;;;;;0.23;0.20;;;;;;;4.85;100.00;99349.78;4987193;28;20078;-69
2021/12/14 02:11:31;;;;;;;0.10;0.10;;;;;;;4.83;100.00;99368.56;4988480;28;20050;-69
2021/12/14 02:14:00;;;;;;;0.10;0.08;;;;;;;4.79;100.00;99371.00;4982008;28;20088;-69
2021/12/14 02:16:29;;;;;;;0.10;0.10;;;;;;;4.76;100.00;99371.72;4994317;28;20109;-68
2021/12/14 02:19:03;;;;;;;0.20;0.15;;;;;;;4.73;100.00;99379.34;4974300;28;20050;-68
2021/12/14 02:21:34;;;;;;;0.10;0.10;;;;;;;4.67;100.00;99389.38;4986775;28;20050;-68
2021/12/14 02:24:05;;;;;;;0.15;0.13;;;;;;;4.68;100.00;99408.22;4979606;28;20055;-68
2021/12/14 02:26:35;;;;;;;0.10;0.10;;;;;;;4.64;100.00;99412.38;4994292;28;20042;-68
2021/12/14 02:29:07;;;;;;;0.20;0.13;;;;;;;4.65;100.00;99416.69;4994183;28;20081;-69
2021/12/14 02:31:38;;;;;;;0.20;0.20;;;;;;;4.63;100.00;99428.56;4976539;28;20050;-69
2021/12/14 02:34:09;;;;;;;0.47;0.20;;;;;;;4.60;100.00;99436.13;4974571;28;20047;-69
2021/12/14 02:36:45;;;;;;;0.25;0.10;;;;;;;4.57;100.00;99436.91;4974592;28;20043;-68
2021/12/14 02:39:35;;;;;;;0.20;0.20;;;;;;;4.45;100.00;99435.66;4975965;28;20054;-69
2021/12/14 02:42:06;;;;;;;0.20;0.20;;;;;;;4.46;100.00;99432.25;4983465;28;20049;-68
2021/12/14 02:44:35;;;;;;;0.20;0.15;;;;;;;4.47;100.00;99444.28;4988201;28;20055;-68
2021/12/14 02:47:10;;;;;;;0.20;0.13;;;;;;;4.46;100.00;99442.50;4974647;28;20054;-69
2021/12/14 02:49:42;;;;;;;0.10;0.10;;;;;;;4.43;100.00;99453.53;4989770;28;20101;-68
2021/12/14 02:52:14;;;;;;;0.20;0.20;;;;;;;4.45;100.00;99451.88;4993083;28;20530;-67
2021/12/14 02:54:44;;;;;;;;;;;;;;;4.48;100.00;99451.13;4979563;28;20090;-67
2021/12/14 02:57:16;;;;;;;0.28;0.28;;;;;;;4.48;100.00;99456.25;4982988;28;19922;-69
2021/12/14 02:59:47;;;;;;;0.43;0.20;;;;;;;4.48;100.00;99451.13;4974036;28;20097;-69
2021/12/14 03:02:19;;;;;;;0.77;0.40;;;;;;;4.51;100.00;99453.78;4986917;28;20493;-73
2021/12/14 03:04:49;;;;;;;1.02;0.20;;;;;;;4.51;100.00;99452.09;4974145;28;20512;-70
2021/12/14 03:07:22;;;;;;;0.47;0.28;;;;;;;4.50;100.00;99450.34;4982462;28;20074;-70
2021/12/14 03:09:57;;;;;;;0.50;0.30;;;;;;;4.49;100.00;99458.88;4977557;28;20047;-70
2021/12/14 03:12:31;;;;;;;1.75;0.17;;;;;;;4.44;100.00;99456.94;4973577;28;20138;-70
2021/12/14 03:15:05;;;;;;;0.15;0.10;;;;;;;4.41;100.00;99460.28;4975716;28;20093;-69
2021/12/14 03:17:34;;;;;;;0.30;0.30;;;;;;;4.35;100.00;99445.59;4992395;28;20046;-69
2021/12/14 03:20:07;;;;;;;0.45;0.10;;;;;;;4.37;100.00;99441.38;4979440;28;20058;-70
2021/12/14 03:22:37;;;;;;;;;;;;;;;4.36;100.00;99452.44;4985503;28;20058;-70
2021/12/14 03:25:09;;;;;;;0.20;0.20;;;;;;;4.37;100.00;99471.25;4973151;28;19922;-70
2021/12/14 03:27:40;;;;;;;0.20;0.10;;;;;;;4.36;100.00;99461.84;4994870;28;20046;-70
2021/12/14 03:30:20;;;;;;;0.20;0.20;;;;;;;4.34;100.00;99472.00;4994572;28;20046;-70
2021/12/14 03:32:49;;;;;;;0.10;0.10;;;;;;;4.34;100.00;99477.13;4960288;28;20134;-69
2021/12/14 03:35:19;;;;;;;0.43;0.35;;;;;;;4.36;100.00;99482.31;4986536;28;20553;-70
2021/12/14 03:37:49;;;;;;;0.20;0.20;;;;;;;4.37;100.00;99476.38;4972748;28;20042;-70
2021/12/14 03:40:21;;;;;;;0.52;0.28;;;;;;;4.41;100.00;99480.78;4985031;28;20567;-69
2021/12/14 03:42:50;;;;;;;0.30;0.30;;;;;;;4.43;100.00;99493.66;4973543;28;20508;-70
2021/12/14 03:45:21;;;;;;;0.10;0.10;;;;;;;4.41;100.00;99507.25;4970783;28;20169;-69
2021/12/14 03:47:53;;;;;;;0.20;0.20;;;;;;;4.40;100.00;99512.34;4989804;28;20578;-70
2021/12/14 03:50:25;;;;;;;0.47;0.20;;;;;;;4.34;100.00;99536.03;4992222;28;20293;-69
2021/12/14 03:52:55;;;;;;;1.95;0.40;;;;;;;4.28;100.00;99535.81;4978136;28;20503;-70
2021/12/14 03:55:28;;;;;;;0.30;0.20;;;;;;;4.27;100.00;99544.31;4986771;28;20082;-70
2021/12/14 03:57:57;;;;;;;0.30;0.20;;;;;;;4.29;100.00;99546.94;4989164;28;20082;-69
2021/12/14 04:00:29;;;;;;;0.52;0.38;;;;;;;4.24;100.00;99541.66;4992309;28;20047;-70
2021/12/14 04:03:04;;;;;;;0.30;0.30;;;;;;;4.28;100.00;99540.94;4991227;28;20082;-70
2021/12/14 04:05:33;;;;;;;0.20;0.17;;;;;;;4.31;100.00;99538.50;4982044;28;20050;-70
2021/12/14 04:08:04;;;;;;;0.22;0.20;;;;;;;4.34;100.00;99538.59;4984359;28;20054;-71
2021/12/14 04:10:35;;;;;;;6.88;3.22;;;;;;;4.33;100.00;99543.66;4992982;28;20054;-70
2021/12/14 04:13:07;;;;;;;36.78;14.30;;;;;;;4.29;100.00;99547.81;4993312;28;20042;-71
2021/12/14 04:15:36;;;;;;;22.10;8.18;;;;;;;4.25;100.00;99545.09;4981463;28;20082;-69
2021/12/14 04:18:05;;;;;;;0.38;0.20;;;;;;;4.16;100.00;99533.69;4994233;28;20085;-71
2021/12/14 04:20:35;;;;;;;1.20;0.50;;;;;;;4.11;100.00;99547.16;4994191;28;20052;-70
2021/12/14 04:23:11;;;;;;;8.35;3.13;;;;;;;4.09;100.00;99569.28;4992421;28;20050;-70
2021/12/14 04:25:42;;;;;;;0.38;0.10;;;;;;;4.07;100.00;99576.03;4993004;28;20054;-70
2021/12/14 04:28:15;;;;;;;0.40;0.20;;;;;;;4.06;100.00;99594.78;4991750;28;20058;-69
2021/12/14 04:30:44;;;;;;;0.20;0.20;;;;;;;4.05;100.00;99604.09;4994335;28;20425;-70
2021/12/14 04:33:16;;;;;;;0.25;0.25;;;;;;;4.03;100.00;99603.19;4992719;28;20135;-70
2021/12/14 04:35:48;;;;;;;0.75;0.28;;;;;;;3.99;100.00;99609.88;4978389;28;20571;-70
2021/12/14 04:38:22;;;;;;;0.75;0.38;;;;;;;4.01;100.00;99611.63;4979554;28;20050;-71
2021/12/14 04:52:02;;;;;;;0.30;0.30;;;;;;;3.95;100.00;99618.25;4992577;28;20113;-69
2021/12/14 04:54:37;;;;;;;0.40;0.28;;;;;;;3.93;100.00;99622.44;4992130;28;20451;-70
2021/12/14 04:57:18;;;;;;;0.63;0.30;;;;;;;3.94;100.00;99626.78;4993088;28;20105;-69
2021/12/14 04:59:46;;;;;;;1.73;0.25;;;;;;;3.93;100.00;99632.69;4996380;28;20050;-69
2021/12/14 05:02:18;;;;;;;0.65;0.25;;;;;;;3.99;100.00;99630.38;4995965;28;20062;-71
2021/12/14 05:04:47;;;;;;;0.50;0.40;;;;;;;4.03;100.00;99631.34;4996694;28;20058;-69
2021/12/14 05:07:33;;;;;;;3.22;0.40;;;;;;;4.06;100.00;99631.47;4993556;28;20085;-69
2021/12/14 05:10:07;;;;;;;0.20;0.15;;;;;;;4.04;100.00;99634.78;4993326;28;20138;-70
2021/12/14 05:12:39;;;;;;;0.32;0.20;;;;;;;4.02;100.00;99638.97;4984795;28;20058;-69
2021/12/14 05:15:10;;;;;;;0.20;0.20;;;;;;;4.03;100.00;99640.72;4996037;28;20504;-69
2021/12/14 05:17:41;;;;;;;0.57;0.32;;;;;;;4.05;100.00;99645.06;4996214;28;20054;-70
2021/12/14 05:20:14;;;;;;;0.32;0.30;;;;;;;4.06;100.00;99646.81;4996244;28;20652;-70
2021/12/14 05:22:45;;;;;;;2.67;0.30;;;;;;;4.08;100.00;99659.69;4995933;28;20499;-70
2021/12/14 05:25:18;;;;;;;0.20;0.20;;;;;;;4.09;100.00;99658.88;4996414;28;20108;-70
2021/12/14 05:27:49;;;;;;;0.43;0.32;;;;;;;4.10;100.00;99663.16;4997690;28;20043;-70
2021/12/14 05:30:24;;;;;;;0.82;0.40;;;;;;;4.11;100.00;99668.34;4997530;28;20085;-70
2021/12/14 05:32:58;;;;;;;0.32;0.28;;;;;;;4.12;100.00;99674.34;4995538;28;20108;-70
2021/12/14 05:35:27;;;;;;;0.22;0.22;;;;;;;4.15;100.00;99674.47;4995984;28;20050;-70
2021/12/14 05:37:57;;;;;;;0.93;0.55;;;;;;;4.15;100.00;99677.91;4995949;28;20062;-70
2021/12/14 05:40:45;;;;;;;1.23;0.47;;;;;;;4.17;100.00;99685.66;4996140;28;20054;-70
2021/12/14 05:43:16;;;;;;;0.40;0.40;;;;;;;4.18;100.00;99695.06;4984057;28;20050;-71
2021/12/14 05:45:46;;;;;;;0.55;0.38;;;;;;;4.19;100.00;99701.91;4995710;28;20071;-71
2021/12/14 05:48:20;;;;;;;0.35;0.35;;;;;;;4.20;100.00;99699.41;4995847;28;20047;-71
2021/12/14 05:50:51;;;;;;;0.82;0.50;;;;;;;4.22;100.00;99724.22;4996259;28;20452;-70
2021/12/14 05:53:22;;;;;;;0.98;0.50;;;;;;;4.17;100.00;99726.59;4994900;28;20042;-71
2021/12/14 05:55:53;;;;;;;1.13;0.90;;;;;;;4.17;100.00;99731.72;4998284;28;20504;-71
2021/12/14 05:58:23;;;;;;;1.42;0.90;;;;;;;4.19;100.00;99740.31;4996567;28;20050;-70
2021/12/14 06:00:55;;;;;;;1.45;0.85;;;;;;;4.19;100.00;99745.44;4997004;28;20104;-70
2021/12/14 06:03:26;;;;;;;2.28;1.45;;;;;;;4.23;100.00;99746.44;4996323;28;20089;-70
2021/12/14 06:05:57;;;;;;;2.03;1.42;;;;;;;4.26;100.00;99751.66;4994712;28;20108;-70
2021/12/14 06:08:31;;;;;;;1.45;0.85;;;;;;;4.30;100.00;99763.78;4994903;28;20051;-70
2021/12/14 06:11:03;;;;;;;1.13;0.57;;;;;;;4.31;100.00;99761.28;4994651;28;20096;-71
2021/12/14 06:13:43;;;;;;;0.90;0.50;;;;;;;4.34;100.00;99770.78;4993530;28;20054;-70
2021/12/14 06:16:27;;;;;;;0.63;0.40;;;;;;;4.35;100.00;99775.97;4994497;28;20046;-70
2021/12/14 06:19:13;;;;;;;0.47;0.45;;;;;;;4.35;100.00;99783.66;4994652;28;20132;-71
2021/12/14 06:21:42;;;;;;;0.57;0.40;;;;;;;4.31;100.00;99775.78;4993990;28;20129;-70
2021/12/14 06:24:13;;;;;;;0.63;0.50;;;;;;;4.38;100.00;99788.00;4994345;28;20058;-71
2021/12/14 06:26:46;;;;;;;0.77;0.40;;;;;;;4.39;100.00;99792.31;4994649;28;20050;-71
2021/12/14 06:29:14;;;;;;;;;;;;;;;4.41;100.00;99799.22;4997993;28;20042;-71
2021/12/14 06:31:43;;;;;;;1.65;0.50;;;;;;;4.40;100.00;99802.63;4993931;28;19980;-70
2021/12/14 06:34:14;;;;;;;0.57;0.38;;;;;;;4.39;100.00;99785.50;4994043;28;20047;-70
2021/12/14 06:37:27;;;;;;;0.75;0.70;;;;;;;4.36;100.00;99779.41;4994020;28;20055;-71
2021/12/14 06:40:19;;;;;;;1.10;0.30;;;;;;;4.32;100.00;99783.50;4944848;28;20476;-70
2021/12/14 06:42:51;;;;;;;0.35;0.32;;;;;;;4.29;100.00;99785.97;4993624;28;20046;-71
2021/12/14 06:45:22;;;;;;;0.98;0.43;;;;;;;4.24;100.00;99778.91;4994058;28;20079;-71
2021/12/14 06:47:54;;;;;;;0.28;0.28;;;;;;;4.17;100.00;99791.47;4993622;28;20046;-71
2021/12/14 06:50:26;;;;;;;0.30;0.25;;;;;;;4.20;100.00;99791.59;4993875;28;20046;-71
2021/12/14 06:53:01;;;;;;;0.20;0.20;;;;;;;4.19;100.00;99801.75;4993320;28;20627;-71
2021/12/14 06:55:30;;;;;;;0.63;0.47;;;;;;;4.22;100.00;99811.28;4994124;28;20105;-70
2021/12/14 06:58:13;;;;;;;0.30;0.30;;;;;;;4.21;100.00;99830.88;4995404;28;20059;-71
2021/12/14 07:00:44;;;;;;;33.45;10.00;;;;;;;4.20;100.00;99829.13;4993623;28;20089;-69
2021/12/14 07:03:13;;;;;;;12.38;3.10;;;;;;;4.17;100.00;99818.78;4990008;28;20046;-70
2021/12/14 07:05:44;;;;;;;147.52;56.00;;;;;;;4.17;100.00;99793.19;4984131;28;20499;-70
2021/12/14 07:08:15;;;;;;;111.75;37.03;;;;;;;4.17;100.00;99794.03;4993038;28;20132;-71
2021/12/14 07:10:45;;;;;;;206.88;73.80;;;;;;;4.16;100.00;99801.66;4993419;28;20047;-70
2021/12/14 07:13:18;;;;;;;117.22;40.78;;;;;;;4.16;100.00;99809.34;4992678;28;20042;-70
2021/12/14 07:15:48;;;;;;;37.10;11.60;;;;;;;4.15;100.00;99821.25;4993533;28;20096;-69
2021/12/14 07:18:17;;;;;;;1.55;1.02;;;;;;;4.17;100.00;99811.09;4993008;28;20054;-69
2021/12/14 07:20:49;;;;;;;0.57;0.32;;;;;;;4.18;100.00;99825.63;4991784;28;20105;-69
2021/12/14 07:23:25;;;;;;;0.85;0.47;;;;;;;4.21;100.00;99825.75;4992993;28;20061;-68
2021/12/14 07:25:57;;;;;;;0.73;0.50;;;;;;;4.25;100.00;99831.88;4993511;28;20503;-69
2021/12/14 07:28:31;;;;;;;0.30;0.17;;;;;;;4.26;100.00;99833.59;4996020;28;20050;-70
2021/12/14 07:31:02;;;;;;;0.30;0.25;;;;;;;4.24;100.00;99851.50;4985763;28;20110;-70
2021/12/14 07:33:32;;;;;;;1.35;0.30;;;;;;;4.24;100.00;99851.50;4992309;28;20100;-70
2021/12/14 07:36:03;;;;;;;0.22;0.10;;;;;;;4.24;100.00;99841.25;4992693;28;20081;-69
2021/12/14 07:38:41;;;;;;;1.27;0.40;;;;;;;4.25;100.00;99853.22;4992394;28;20046;-70
2021/12/14 07:41:23;;;;;;;0.38;0.30;;;;;;;4.23;100.00;99864.22;4989371;28;20057;-70
2021/12/14 07:43:59;;;;;;;1.95;0.32;;;;;;;4.21;100.00;99864.16;4983750;28;20050;-70
2021/12/14 07:46:34;;;;;;;0.38;0.38;;;;;;;4.22;100.00;99880.41;4979718;28;20085;-70
2021/12/14 07:49:05;;;;;;;0.55;0.40;;;;;;;4.22;100.00;99878.72;4994103;28;20054;-70
2021/12/14 07:51:37;;;;;;;0.50;0.27;;;;;;;4.22;100.00;99870.16;4994582;28;20058;-69
2021/12/14 07:54:09;;;;;;;0.57;0.30;;;;;;;4.19;100.00;99868.34;4992687;28;20500;-69
2021/12/14 07:56:44;;;;;;;0.20;0.20;;;;;;;4.17;100.00;99869.97;4993383;28;20043;-69
2021/12/14 07:59:23;;;;;;;0.00;0.00;;;;;;;4.13;100.00;99873.22;4992874;28;20570;-69
2021/12/14 08:02:07;;;;;;;0.10;0.10;;;;;;;4.09;100.00;99887.56;4992512;28;20104;-69
2021/12/14 08:04:36;;;;;;;0.05;0.05;;;;;;;4.04;100.00;99890.75;4979445;28;20046;-69
2021/12/14 08:07:06;;;;;;;0.20;0.20;;;;;;;4.01;100.00;99890.63;4992349;28;20093;-69
2021/12/14 08:09:47;;;;;;;0.20;0.20;;;;;;;3.98;100.00;99899.91;4992732;28;20054;-69
2021/12/14 08:12:44;;;;;;;1.20;0.30;;;;;;;3.92;100.00;99899.69;4978673;28;20046;-70
2021/12/14 08:15:24;;;;;;;0.98;0.22;;;;;;;3.85;100.00;99905.34;4936847;28;20050;-69
2021/12/14 08:18:12;;;;;;;0.22;0.13;;;;;;;3.78;100.00;99911.03;4992235;28;20453;-69
2021/12/14 08:20:48;;;;;;;0.90;0.45;;;;;;;3.77;100.00;99915.22;4991947;28;20061;-69
2021/12/14 08:23:22;;;;;;;0.32;0.25;;;;;;;3.69;100.00;99911.50;4991751;28;20050;-70
2021/12/14 08:25:52;;;;;;;0.40;0.30;;;;;;;3.59;100.00;99913.56;4992016;28;20085;-70
2021/12/14 08:28:22;;;;;;;0.10;0.10;;;;;;;3.51;100.00;99916.66;4994212;28;20050;-69
2021/12/14 08:31:00;;;;;;;0.65;0.40;;;;;;;3.50;100.00;99919.16;4993476;28;20129;-69
2021/12/14 08:33:43;;;;;;;0.75;0.35;;;;;;;3.48;100.00;99936.09;4991829;28;20089;-69
2021/12/14 08:36:14;;;;;;;1.27;0.47;;;;;;;3.47;100.00;99930.13;4991896;28;20487;-70
2021/12/14 08:38:43;;;;;;;0.45;0.30;;;;;;;3.44;100.00;99930.00;4991937;28;20042;-70
2021/12/14 08:41:19;;;;;;;0.50;0.40;;;;;;;3.35;100.00;99940.69;4991926;28;20120;-70
2021/12/14 08:43:50;;;;;;;0.17;0.15;;;;;;;3.29;100.00;99929.28;4991216;28;20399;-70
2021/12/14 08:46:25;;;;;;;0.30;0.30;;;;;;;3.22;100.00;99935.81;4992169;28;20047;-70
2021/12/14 08:48:57;;;;;;;0.55;0.22;;;;;;;3.18;100.00;99943.28;4991308;28;20518;-69
2021/12/14 08:51:29;;;;;;;0.13;0.13;;;;;;;3.15;100.00;99951.69;4991802;28;20131;-70
2021/12/14 08:54:01;;;;;;;0.38;0.38;;;;;;;3.01;100.00;99935.69;4991134;28;20135;-70
2021/12/14 08:56:33;;;;;;;0.20;0.20;;;;;;;3.06;100.00;99957.22;4999012;28;20454;-69
2021/12/14 08:59:01;;;;;;;2.10;0.50;;;;;;;3.08;100.00;99955.63;4991789;28;20046;-69
2021/12/14 09:01:33;;;;;;;0.30;0.20;;;;;;;3.11;100.00;99953.19;4991698;28;20132;-69
2021/12/14 09:04:06;;;;;;;0.75;0.50;;;;;;;3.14;100.00;99955.91;4990916;28;20516;-69
2021/12/14 09:06:37;;;;;;;0.57;0.50;;;;;;;3.18;100.00;99961.16;4991418;28;20050;-68
2021/12/14 09:09:08;;;;;;;0.55;0.45;;;;;;;3.19;100.00;99968.91;4991438;28;20105;-68
2021/12/14 09:11:40;;;;;;;0.30;0.30;;;;;;;3.19;100.00;99957.81;4991433;28;20042;-70
2021/12/14 09:14:13;;;;;;;0.52;0.28;;;;;;;3.19;100.00;99962.94;4991363;28;20488;-69
2021/12/14 09:16:44;;;;;;;;;;;;;;;3.17;100.00;99972.22;4994254;28;20047;-68
2021/12/14 09:19:18;;;;;;;2.05;0.65;;;;;;;3.15;100.00;99978.09;5001939;28;19980;-69
2021/12/14 09:21:51;;;;;;;0.50;0.50;;;;;;;3.15;100.00;99980.66;4991429;28;20085;-69
2021/12/14 09:24:25;;;;;;;0.50;0.43;;;;;;;3.08;100.00;99976.06;4991166;28;20058;-70
2021/12/14 09:26:57;;;;;;;1.08;0.60;;;;;;;2.97;100.00;99976.38;4990968;28;20082;-70
2021/12/14 09:29:28;;;;;;;1.17;0.73;;;;;;;2.82;100.00;99977.41;4980267;28;20137;-69
2021/12/14 09:32:04;;;;;;;0.80;0.60;;;;;;;2.79;100.00;99982.34;4993131;28;20054;-70
2021/12/14 09:34:37;;;;;;;1.50;0.70;;;;;;;2.75;100.00;99989.78;4991447;28;20058;-69
2021/12/14 09:37:09;;;;;;;1.02;0.55;;;;;;;2.77;100.00;100000.97;4991606;28;20112;-69
2021/12/14 09:39:42;;;;;;;;;;;;;;;2.78;100.00;100010.41;4991355;28;20053;-69
2021/12/14 09:42:13;;;;;;;1.35;0.57;;;;;;;2.78;100.00;100006.16;4991298;28;19921;-68
2021/12/14 09:44:49;;;;;;;0.45;0.30;;;;;;;2.80;100.00;100013.91;4993077;28;20059;-69
2021/12/14 09:47:25;;;;;;;0.20;0.20;;;;;;;2.77;100.00;100014.59;4996409;28;20050;-69
2021/12/14 09:49:54;;;;;;;0.60;0.43;;;;;;;2.77;100.00;100035.03;4995240;28;20050;-69
2021/12/14 09:52:25;;;;;;;0.73;0.40;;;;;;;2.79;100.00;100050.47;4995278;28;20051;-69
2021/12/14 09:54:56;;;;;;;0.52;0.35;;;;;;;2.79;100.00;100047.91;4994674;28;20050;-69
2021/12/14 09:57:29;;;;;;;0.60;0.50;;;;;;;2.81;100.00;100051.41;4993694;28;20062;-69
2021/12/14 10:00:00;;;;;;;0.43;0.43;;;;;;;2.79;100.00;100058.13;4976521;28;20599;-69
2021/12/14 10:02:33;;;;;;;0.70;0.52;;;;;;;2.82;100.00;100078.69;4994712;28;20680;-69
2021/12/14 10:05:07;;;;;;;0.95;0.30;;;;;;;2.81;100.00;100089.75;4995206;28;20082;-69
2021/12/14 10:07:36;;;;;;;0.55;0.40;;;;;;;2.80;100.00;100105.88;4994469;28;20046;-69
2021/12/14 10:10:10;;;;;;;1.33;0.47;;;;;;;2.81;100.00;100105.94;4994089;28;20054;-68
2021/12/14 10:12:50;;;;;;;2.00;0.30;;;;;;;2.83;100.00;100111.13;4994245;28;20047;-69
2021/12/14 10:15:28;;;;;;;0.57;0.17;;;;;;;2.85;100.00;100106.97;4994058;28;20487;-69
2021/12/14 10:18:02;;;;;;;0.20;0.10;;;;;;;2.86;100.00;100107.06;4993661;28;20082;-69
2021/12/14 10:20:34;;;;;;;0.60;0.45;;;;;;;2.90;100.00;100116.63;4994266;28;20082;-69
2021/12/14 10:23:03;;;;;;;0.50;0.25;;;;;;;2.90;100.00;100119.16;4994145;28;20058;-69
2021/12/14 10:25:32;;;;;;;0.50;0.20;;;;;;;2.92;100.00;100121.81;4994093;28;20089;-69
2021/12/14 10:28:01;;;;;;;0.50;0.20;;;;;;;2.90;100.00;100123.41;4994633;28;20077;-69
2021/12/14 10:30:32;;;;;;;0.20;0.20;;;;;;;2.87;100.00;100136.91;4997180;28;20107;-69
2021/12/14 10:33:05;;;;;;;0.28;0.20;;;;;;;2.83;100.00;100140.13;4989897;28;20054;-69
2021/12/14 10:35:41;;;;;;;0.30;0.13;;;;;;;2.85;100.00;100140.19;4994006;28;20105;-69
2021/12/14 10:38:21;;;;;;;1.02;0.32;;;;;;;2.88;100.00;100142.91;4993793;28;20054;-69
2021/12/14 10:43:42;;;;;;;0.10;0.10;;;;;;;2.98;100.00;100162.13;4991663;28;20077;-69
2021/12/14 10:46:13;;;;;;;0.20;0.10;;;;;;;2.99;100.00;100169.88;4993466;28;20113;-69
2021/12/14 10:48:46;;;;;;;0.40;0.30;;;;;;;3.03;100.00;100161.56;4993245;28;20107;-69
2021/12/14 10:51:20;;;;;;;0.40;0.40;;;;;;;3.08;100.00;100159.25;4994332;28;20093;-69
2021/12/14 10:53:52;;;;;;;0.50;0.30;;;;;;;3.11;100.00;100161.94;4994586;28;20081;-69
2021/12/14 10:56:39;;;;;;;0.10;0.10;;;;;;;3.16;100.00;100165.59;4999486;28;20040;-69
2021/12/14 10:59:09;;;;;;;0.30;0.30;;;;;;;3.20;100.00;100158.97;4994146;28;20057;-69
2021/12/14 11:01:39;;;;;;;0.20;0.20;;;;;;;3.22;100.00;100157.38;4993891;28;20050;-69
2021/12/14 11:04:12;;;;;;;0.32;0.20;;;;;;;3.23;100.00;100159.09;4993788;28;20097;-69
2021/12/14 11:06:45;;;;;;;1.95;0.43;;;;;;;3.20;100.00;100153.84;4993921;28;20073;-69
2021/12/14 11:09:42;;;;;;;0.52;0.20;;;;;;;3.19;100.00;100152.09;5005061;28;20064;-69
2021/12/14 11:12:18;;;;;;;1.33;0.38;;;;;;;3.20;100.00;100143.63;4981023;28;20089;-69
2021/12/14 11:14:49;;;;;;;0.75;0.38;;;;;;;3.21;100.00;100153.94;4994296;28;20140;-69
2021/12/14 11:20:11;;;;;;;1.17;0.52;;;;;;;3.19;100.00;100147.88;4993608;28;20072;-69
2021/12/14 11:22:48;;;;;;;0.85;0.57;;;;;;;3.19;100.00;100141.88;4993792;28;20058;-69
2021/12/14 11:25:28;;;;;;;0.45;0.30;;;;;;;3.19;100.00;100135.09;4993752;28;20511;-69
2021/12/14 11:28:05;;;;;;;0.95;0.40;;;;;;;3.21;100.00;100145.38;4993500;28;20057;-69
2021/12/14 11:30:38;;;;;;;0.50;0.50;;;;;;;3.19;100.00;100145.31;4994514;28;20124;-69
2021/12/14 11:33:16;;;;;;;1.05;0.47;;;;;;;3.20;100.00;100148.72;4996587;28;20094;-69
2021/12/14 11:35:50;;;;;;;1.95;0.68;;;;;;;3.19;100.00;100162.34;4993633;28;20108;-69
2021/12/14 11:38:33;;;;;;;0.82;0.47;;;;;;;3.20;100.00;100164.94;4993524;28;20062;-69
2021/12/14 11:41:06;;;;;;;0.63;0.30;;;;;;;3.20;100.00;100164.94;4993194;28;20193;-68
2021/12/14 11:43:35;;;;;;;1.15;0.88;;;;;;;3.23;100.00;100156.53;4992956;28;20081;-69
2021/12/14 11:46:07;;;;;;;0.47;0.43;;;;;;;3.24;100.00;100154.06;4994939;28;20077;-69
2021/12/14 11:48:40;;;;;;;0.70;0.47;;;;;;;3.25;100.00;100155.84;4995053;28;20047;-69
2021/12/14 11:51:11;;;;;;;0.50;0.30;;;;;;;3.24;100.00;100159.19;4994630;28;20061;-69
2021/12/14 11:53:48;;;;;;;0.80;0.80;;;;;;;3.24;100.00;100166.84;4994400;28;20133;-69
2021/12/14 11:56:19;;;;;;;0.73;0.38;;;;;;;3.25;100.00;100172.84;4996578;28;20447;-69
2021/12/14 11:58:56;;;;;;;0.50;0.30;;;;;;;3.26;100.00;100172.94;4995517;28;20077;-69
2021/12/14 12:01:28;;;;;;;0.80;0.50;;;;;;;3.15;100.00;100158.75;4993388;28;20042;-69
2021/12/14 12:03:59;;;;;;;0.50;0.40;;;;;;;3.18;100.00;100161.44;4994278;28;20649;-69
2021/12/14 12:09:28;;;;;;;0.63;0.50;;;;;;;3.30;100.00;100184.19;4992729;28;20064;-69
2021/12/14 12:09:35;;;;;;;1.25;0.50;;;;;;;3.33;100.00;100186.91;4993669;28;20057;-69
2021/12/14 12:12:19;;;;;;;0.75;0.50;;;;;;;3.35;100.00;100196.38;4986108;28;20050;-69
2021/12/14 12:14:50;;;;;;;0.57;0.47;;;;;;;3.36;100.00;100202.38;4993917;28;20050;-69
2021/12/14 12:17:26;;;;;;;1.02;0.63;;;;;;;3.37;100.00;100196.47;4979522;28;20159;-69
2021/12/14 12:20:04;;;;;;;1.00;0.75;;;;;;;3.33;100.00;100186.91;4993715;28;20077;-69